sensor_id;sensor_type;location;lat;lon;timestamp;P1;durP1;ratioP1;P2;durP2;ratioP2
42666;SDS011;28280;49.646;14.130;2023-02-15T00:09:36;18.25;;;10.02;;
42666;SDS011;28280;49.646;14.130;2023-02-15T00:19:57;18.63;;;9.88;;
42666;SDS011;28280;49.646;14.130;2023-02-15T00:30:18;22.00;;;10.57;;
42666;SDS011;28280;49.646;14.130;2023-02-15T00:40:40;19.35;;;9.68;;
42666;SDS011;28280;49.646;14.130;2023-02-15T00:51:01;20.52;;;9.73;;
42666;SDS011;28280;49.646;14.130;2023-02-15T01:01:23;18.00;;;10.25;;
42666;SDS011;28280;49.646;14.130;2023-02-15T01:11:45;17.92;;;10.00;;
42666;SDS011;28280;49.646;14.130;2023-02-15T01:22:06;19.38;;;10.02;;
42666;SDS011;28280;49.646;14.130;2023-02-15T01:32:28;18.35;;;9.68;;
42666;SDS011;28280;49.646;14.130;2023-02-15T01:42:53;19.33;;;9.77;;
42666;SDS011;28280;49.646;14.130;2023-02-15T01:53:29;18.80;;;10.30;;
42666;SDS011;28280;49.646;14.130;2023-02-15T02:03:59;16.98;;;9.27;;
42666;SDS011;28280;49.646;14.130;2023-02-15T02:14:26;18.40;;;10.02;;
42666;SDS011;28280;49.646;14.130;2023-02-15T02:46:52;17.33;;;8.48;;
42666;SDS011;28280;49.646;14.130;2023-02-15T02:57:15;17.90;;;9.48;;
42666;SDS011;28280;49.646;14.130;2023-02-15T03:07:38;15.43;;;8.70;;
42666;SDS011;28280;49.646;14.130;2023-02-15T03:18:02;16.15;;;8.02;;
42666;SDS011;28280;49.646;14.130;2023-02-15T03:28:35;14.00;;;7.72;;
42666;SDS011;28280;49.646;14.130;2023-02-15T03:49:57;12.35;;;6.93;;
42666;SDS011;28280;49.646;14.130;2023-02-15T04:00:22;13.13;;;7.20;;
42666;SDS011;28280;49.646;14.130;2023-02-15T04:11:03;12.98;;;6.70;;
42666;SDS011;28280;49.646;14.130;2023-02-15T04:21:25;11.05;;;6.47;;
42666;SDS011;28280;49.646;14.130;2023-02-15T04:32:06;10.88;;;6.32;;
42666;SDS011;28280;49.646;14.130;2023-02-15T04:42:27;11.18;;;6.15;;
42666;SDS011;28280;49.646;14.130;2023-02-15T04:52:49;11.15;;;6.03;;
42666;SDS011;28280;49.646;14.130;2023-02-15T05:03:10;11.05;;;6.55;;
42666;SDS011;28280;49.646;14.130;2023-02-15T05:13:31;10.25;;;5.80;;
42666;SDS011;28280;49.646;14.130;2023-02-15T05:23:53;9.48;;;5.55;;
42666;SDS011;28280;49.646;14.130;2023-02-15T05:34:15;8.90;;;5.82;;
42666;SDS011;28280;49.646;14.130;2023-02-15T05:44:36;9.93;;;5.53;;
42666;SDS011;28280;49.646;14.130;2023-02-15T05:54:57;8.77;;;5.32;;
42666;SDS011;28280;49.646;14.130;2023-02-15T06:05:20;8.88;;;4.95;;
42666;SDS011;28280;49.646;14.130;2023-02-15T06:15:41;9.68;;;5.32;;
42666;SDS011;28280;49.646;14.130;2023-02-15T06:26:03;10.82;;;5.72;;
42666;SDS011;28280;49.646;14.130;2023-02-15T06:36:24;8.82;;;5.10;;
42666;SDS011;28280;49.646;14.130;2023-02-15T06:46:45;8.02;;;4.78;;
42666;SDS011;28280;49.646;14.130;2023-02-15T06:57:07;8.07;;;4.90;;
42666;SDS011;28280;49.646;14.130;2023-02-15T07:07:30;9.35;;;5.40;;
42666;SDS011;28280;49.646;14.130;2023-02-15T07:17:51;8.65;;;5.10;;
42666;SDS011;28280;49.646;14.130;2023-02-15T07:28:12;11.02;;;5.75;;
42666;SDS011;28280;49.646;14.130;2023-02-15T07:38:35;8.00;;;4.55;;
42666;SDS011;28280;49.646;14.130;2023-02-15T07:48:57;8.23;;;5.30;;
42666;SDS011;28280;49.646;14.130;2023-02-15T07:59:18;10.25;;;6.15;;
42666;SDS011;28280;49.646;14.130;2023-02-15T08:09:40;10.05;;;5.25;;
42666;SDS011;28280;49.646;14.130;2023-02-15T08:20:01;10.65;;;5.72;;
42666;SDS011;28280;49.646;14.130;2023-02-15T08:30:22;10.07;;;6.47;;
42666;SDS011;28280;49.646;14.130;2023-02-15T08:40:44;11.82;;;6.63;;
42666;SDS011;28280;49.646;14.130;2023-02-15T08:51:09;11.13;;;6.40;;
42666;SDS011;28280;49.646;14.130;2023-02-15T09:11:54;10.93;;;6.10;;
42666;SDS011;28280;49.646;14.130;2023-02-15T09:22:19;11.10;;;6.57;;
42666;SDS011;28280;49.646;14.130;2023-02-15T09:32:40;11.07;;;5.97;;
42666;SDS011;28280;49.646;14.130;2023-02-15T09:43:05;10.68;;;5.88;;
42666;SDS011;28280;49.646;14.130;2023-02-15T10:04:23;12.55;;;6.70;;
42666;SDS011;28280;49.646;14.130;2023-02-15T10:36:31;14.07;;;7.90;;
42666;SDS011;28280;49.646;14.130;2023-02-15T10:47:24;17.70;;;8.50;;
42666;SDS011;28280;49.646;14.130;2023-02-15T10:57:56;18.77;;;8.57;;
42666;SDS011;28280;49.646;14.130;2023-02-15T11:08:24;19.17;;;9.23;;
42666;SDS011;28280;49.646;14.130;2023-02-15T11:29:19;21.65;;;10.80;;
42666;SDS011;28280;49.646;14.130;2023-02-15T11:39:44;22.50;;;10.17;;
42666;SDS011;28280;49.646;14.130;2023-02-15T11:50:11;18.13;;;9.18;;
42666;SDS011;28280;49.646;14.130;2023-02-15T12:00:37;16.77;;;8.85;;
42666;SDS011;28280;49.646;14.130;2023-02-15T12:11:02;21.50;;;10.60;;
42666;SDS011;28280;49.646;14.130;2023-02-15T12:31:53;20.70;;;10.52;;
42666;SDS011;28280;49.646;14.130;2023-02-15T12:42:16;21.33;;;10.13;;
42666;SDS011;28280;49.646;14.130;2023-02-15T12:52:40;22.92;;;10.85;;
42666;SDS011;28280;49.646;14.130;2023-02-15T13:03:02;27.35;;;12.77;;
42666;SDS011;28280;49.646;14.130;2023-02-15T13:13:25;23.02;;;10.73;;
42666;SDS011;28280;49.646;14.130;2023-02-15T13:23:48;24.23;;;12.50;;
42666;SDS011;28280;49.646;14.130;2023-02-15T13:34:14;25.58;;;12.50;;
42666;SDS011;28280;49.646;14.130;2023-02-15T14:28:05;31.42;;;14.27;;
42666;SDS011;28280;49.646;14.130;2023-02-15T14:48:56;30.08;;;14.13;;
42666;SDS011;28280;49.646;14.130;2023-02-15T14:59:20;32.17;;;15.27;;
42666;SDS011;28280;49.646;14.130;2023-02-15T15:09:42;29.00;;;13.80;;
42666;SDS011;28280;49.646;14.130;2023-02-15T15:20:14;30.20;;;14.82;;
42666;SDS011;28280;49.646;14.130;2023-02-15T15:41:58;29.98;;;15.27;;
42666;SDS011;28280;49.646;14.130;2023-02-15T15:52:24;32.63;;;14.73;;
42666;SDS011;28280;49.646;14.130;2023-02-15T16:02:53;29.15;;;15.02;;
42666;SDS011;28280;49.646;14.130;2023-02-15T16:13:16;29.40;;;15.38;;
42666;SDS011;28280;49.646;14.130;2023-02-15T16:34:35;31.92;;;16.45;;
42666;SDS011;28280;49.646;14.130;2023-02-15T16:45:06;28.90;;;15.05;;
42666;SDS011;28280;49.646;14.130;2023-02-15T16:55:32;31.63;;;16.35;;
42666;SDS011;28280;49.646;14.130;2023-02-15T17:05:58;29.87;;;15.40;;
42666;SDS011;28280;49.646;14.130;2023-02-15T17:16:26;28.63;;;14.98;;
42666;SDS011;28280;49.646;14.130;2023-02-15T17:26:50;27.85;;;15.00;;
42666;SDS011;28280;49.646;14.130;2023-02-15T17:37:28;27.65;;;14.35;;
42666;SDS011;28280;49.646;14.130;2023-02-15T17:47:53;24.15;;;13.57;;
42666;SDS011;28280;49.646;14.130;2023-02-15T17:58:15;25.08;;;14.00;;
42666;SDS011;28280;49.646;14.130;2023-02-15T18:08:41;23.67;;;12.48;;
42666;SDS011;28280;49.646;14.130;2023-02-15T18:19:22;22.77;;;12.27;;
42666;SDS011;28280;49.646;14.130;2023-02-15T18:29:44;23.60;;;12.93;;
42666;SDS011;28280;49.646;14.130;2023-02-15T18:40:12;23.00;;;12.13;;
42666;SDS011;28280;49.646;14.130;2023-02-15T18:50:38;21.70;;;12.23;;
42666;SDS011;28280;49.646;14.130;2023-02-15T19:00:59;21.92;;;12.25;;
42666;SDS011;28280;49.646;14.130;2023-02-15T19:11:22;21.83;;;13.00;;
42666;SDS011;28280;49.646;14.130;2023-02-15T19:21:48;22.03;;;12.93;;
42666;SDS011;28280;49.646;14.130;2023-02-15T19:32:10;20.40;;;12.48;;
42666;SDS011;28280;49.646;14.130;2023-02-15T19:42:33;20.35;;;11.05;;
42666;SDS011;28280;49.646;14.130;2023-02-15T19:52:54;18.73;;;11.20;;
42666;SDS011;28280;49.646;14.130;2023-02-15T20:03:15;18.77;;;11.13;;
42666;SDS011;28280;49.646;14.130;2023-02-15T20:13:37;20.23;;;11.48;;
42666;SDS011;28280;49.646;14.130;2023-02-15T20:23:59;17.52;;;10.13;;
42666;SDS011;28280;49.646;14.130;2023-02-15T20:34:21;19.70;;;11.15;;
42666;SDS011;28280;49.646;14.130;2023-02-15T20:44:42;17.42;;;10.13;;
42666;SDS011;28280;49.646;14.130;2023-02-15T20:55:09;16.92;;;9.65;;
42666;SDS011;28280;49.646;14.130;2023-02-15T21:05:50;17.07;;;9.87;;
42666;SDS011;28280;49.646;14.130;2023-02-15T21:16:14;16.88;;;9.48;;
42666;SDS011;28280;49.646;14.130;2023-02-15T21:26:36;16.10;;;9.93;;
42666;SDS011;28280;49.646;14.130;2023-02-15T21:37:26;17.80;;;10.87;;
42666;SDS011;28280;49.646;14.130;2023-02-15T21:47:47;15.30;;;9.40;;
42666;SDS011;28280;49.646;14.130;2023-02-15T21:58:18;15.98;;;9.55;;
42666;SDS011;28280;49.646;14.130;2023-02-15T22:08:41;18.05;;;9.90;;
42666;SDS011;28280;49.646;14.130;2023-02-15T22:19:03;17.80;;;10.32;;
42666;SDS011;28280;49.646;14.130;2023-02-15T22:29:25;15.10;;;8.95;;
42666;SDS011;28280;49.646;14.130;2023-02-15T22:39:46;15.40;;;9.20;;
42666;SDS011;28280;49.646;14.130;2023-02-15T22:50:18;15.85;;;9.25;;
42666;SDS011;28280;49.646;14.130;2023-02-15T23:00:44;14.95;;;8.68;;
42666;SDS011;28280;49.646;14.130;2023-02-15T23:11:07;13.27;;;7.90;;
42666;SDS011;28280;49.646;14.130;2023-02-15T23:21:30;14.82;;;8.02;;
42666;SDS011;28280;49.646;14.130;2023-02-15T23:31:53;13.88;;;8.00;;
42666;SDS011;28280;49.646;14.130;2023-02-15T23:42:15;13.38;;;7.68;;
42666;SDS011;28280;49.646;14.130;2023-02-15T23:52:38;15.73;;;8.60;;
